Sanko Independence — A8QJ9 — position and weather

sailwx.info

Track history (hours):
 
Tides and Currents Weather Stations Pressure Air Temp Water Temp Dewpoint Dewpoint Depression Visibility Wind Speed Wind Dir Waves Ship Positions

Sanko Independence

Last reported at 2017-Sep-20 19:00 UTC. Time now 2017-Sep-24 10:22 UTC.
Position N 35°47' E 033°20'.

Length 174 m; draft 10.3 m.

Type: Ship (hazmat cat B). MMSI: 636013946.

Date/timePositionNaut miles runAvg speedWind from/ knotsBaromVisibWave heightAir tempDewpointWater temp
2017-Sep-20 19:00N 35°47' E 033°20'46913.0
2017-Sep-19 06:56N 34°33' E 023°53'1913.2
2017-Sep-19 05:30N 34°37' E 023°31'713.4
2017-Sep-19 05:00N 34°38' E 023°23'3412.7
2017-Sep-19 02:17N 34°46' E 022°42'412.3
2017-Sep-19 01:59N 34°47' E 022°38'612.5
2017-Sep-19 01:30N 34°49' E 022°30'912.7
2017-Sep-19 00:46N 34°51' E 022°20'413.0
2017-Sep-19 00:26N 34°52' E 022°14'512.9
2017-Sep-19 00:00N 34°53' E 022°08'913.1
2017-Sep-18 23:19N 34°55' E 021°57'413.1
2017-Sep-18 22:58N 34°56' E 021°52'713.0
2017-Sep-18 22:27N 34°58' E 021°44'2813.0
2017-Sep-18 20:19N 35°04' E 021°11'512.9
2017-Sep-18 19:55N 35°06' E 021°05'512.9
2017-Sep-18 19:30N 35°07' E 020°58'714.4
2017-Sep-18 19:00N 35°09' E 020°50'612.7
2017-Sep-18 18:30N 35°10' E 020°42'612.7
2017-Sep-18 18:00N 35°12' E 020°35'612.7
2017-Sep-18 17:31N 35°13' E 020°27'2312.6
2017-Sep-18 15:40N 35°18' E 019°60'612.6
2017-Sep-18 15:11N 35°20' E 019°52'1012.7
2017-Sep-18 14:25N 35°22' E 019°41'512.7
2017-Sep-18 14:00N 35°24' E 019°34'2012.8
2017-Sep-18 12:28N 35°28' E 019°11'612.8
2017-Sep-18 12:01N 35°29' E 019°04'712.9
2017-Sep-18 11:29N 35°31' E 018°56'613.1
2017-Sep-18 10:59N 35°32' E 018°48'713.2
2017-Sep-18 10:26N 35°34' E 018°40'1213.2
2017-Sep-18 09:32N 35°37' E 018°25'012.9
2017-Sep-18 09:30N 35°37' E 018°25'9113.1
2017-Sep-18 02:33N 35°58' E 016°36'112.9
2017-Sep-18 02:30N 35°59' E 016°35'612.7
2017-Sep-18 02:00N 36°00' E 016°28'5412.4
2017-Sep-17 21:37N 36°13' E 015°22'1013.3
2017-Sep-17 20:51N 36°15' E 015°10'513.4
2017-Sep-17 20:30N 36°16' E 015°04'713.6
2017-Sep-17 20:00N 36°18' E 014°56'713.4
2017-Sep-17 19:30N 36°19' E 014°48'713.2
2017-Sep-17 19:00N 36°21' E 014°40'713.1
2017-Sep-17 18:30N 36°23' E 014°32'713.2
2017-Sep-17 18:00N 36°25' E 014°24'713.4
2017-Sep-17 17:30N 36°27' E 014°17'713.5
2017-Sep-17 17:01N 36°29' E 014°09'713.4
2017-Sep-17 16:30N 36°31' E 014°01'713.4
2017-Sep-17 16:00N 36°33' E 013°53'713.6
2017-Sep-17 15:31N 36°35' E 013°45'713.6
2017-Sep-17 15:00N 36°38' E 013°37'713.6
2017-Sep-17 14:31N 36°40' E 013°29'713.5
2017-Sep-17 13:59N 36°42' E 013°21'613.3
2017-Sep-17 13:31N 36°44' E 013°13'713.1
2017-Sep-17 13:00N 36°46' E 013°05'1113.1
2017-Sep-17 12:12N 36°50' E 012°53'1013.2
2017-Sep-17 11:26N 36°54' E 012°41'613.3
2017-Sep-17 11:00N 36°56' E 012°34'5712.9
2017-Sep-17 06:34N 37°16' E 011°27'112.8
2017-Sep-17 06:30N 37°16' E 011°26'613.0
2017-Sep-17 06:00N 37°18' E 011°19'52513.0
2017-Sep-15 13:39N 36°45' E 000°23'913.4
2017-Sep-15 12:58N 36°44' E 000°11'26413.6
2017-Sep-14 17:29N 36°00' W 005°12'715.5
2017-Sep-14 17:00N 35°59' W 005°21'714.8
2017-Sep-14 16:30N 35°57' W 005°30'1712.8
2017-Sep-14 15:12N 35°54' W 005°50'712.8
2017-Sep-14 14:40N 35°53' W 005°59'1613.2
2017-Sep-14 13:29N 35°50' W 006°18'2812.9
2017-Sep-14 11:19N 35°47' W 006°52'412.3
2017-Sep-14 11:00N 35°46' W 006°57'612.3
2017-Sep-14 10:30N 35°45' W 007°04'612.2
2017-Sep-14 10:00N 35°44' W 007°12'612.7
2017-Sep-14 09:30N 35°44' W 007°19'612.5
2017-Sep-14 09:00N 35°43' W 007°27'812.2
2017-Sep-14 08:21N 35°42' W 007°37'612.3
2017-Sep-14 07:54N 35°41' W 007°44'512.2
2017-Sep-14 07:29N 35°41' W 007°50'612.1
2017-Sep-14 07:00N 35°40' W 007°57'612.4
2017-Sep-14 06:30N 35°39' W 008°04'712.4
2017-Sep-14 05:58N 35°38' W 008°13'812.5
2017-Sep-14 05:19N 35°37' W 008°22'1412.6
2017-Sep-14 04:13N 35°36' W 008°39'312.4
2017-Sep-14 04:00N 35°35' W 008°43'612.3
2017-Sep-14 03:30N 35°35' W 008°50'612.6
2017-Sep-14 03:00N 35°34' W 008°58'612.4
2017-Sep-14 02:29N 35°33' W 009°06'812.1
2017-Sep-14 01:47N 35°32' W 009°16'3311.9
2017-Sep-13 22:59N 35°28' W 009°57'711.6
2017-Sep-13 22:23N 35°27' W 010°05'511.6
2017-Sep-13 21:58N 35°27' W 010°11'911.5
2017-Sep-13 21:10N 35°26' W 010°22'511.7
2017-Sep-13 20:46N 35°25' W 010°28'511.3
2017-Sep-13 20:19N 35°25' W 010°34'611.7
2017-Sep-13 19:48N 35°24' W 010°41'411.7
2017-Sep-13 19:27N 35°23' W 010°47'511.5
2017-Sep-13 19:00N 35°23' W 010°53'611.6
2017-Sep-13 18:29N 35°22' W 011°00'1011.6
2017-Sep-13 17:39N 35°21' W 011°12'210.8
2017-Sep-13 17:30N 35°20' W 011°14'611.5
2017-Sep-13 16:57N 35°20' W 011°22'511.4
2017-Sep-13 16:30N 35°19' W 011°28'611.4
2017-Sep-13 16:00N 35°19' W 011°35'611.3
2017-Sep-13 15:29N 35°18' W 011°42'811.4
2017-Sep-13 14:49N 35°17' W 011°51'611.4
2017-Sep-13 14:16N 35°16' W 011°59'611.5
2017-Sep-13 13:45N 35°15' W 012°06'9111.8
2017-Sep-13 06:02N 35°05' W 013°57'113.3
2017-Sep-13 05:59N 35°05' W 013°57'1913.2
2017-Sep-13 04:35N 35°02' W 014°20'213.1
2017-Sep-13 04:27N 35°02' W 014°22'913.1
2017-Sep-13 03:47N 35°01' W 014°32'413.2
2017-Sep-13 03:29N 35°00' W 014°37'42312.6
2017-Sep-11 17:57N 34°52' W 023°14'2612.1
2017-Sep-11 15:49N 34°54' W 023°45'412.8
2017-Sep-11 15:30N 34°54' W 023°50'712.5
2017-Sep-11 14:54N 34°55' W 023°59'1212.5
2017-Sep-11 13:56N 34°56' W 024°14'1812.6
2017-Sep-11 12:32N 34°57' W 024°35'412.3
2017-Sep-11 12:14N 34°58' W 024°40'3112.2
2017-Sep-11 09:39N 34°59' W 025°18'  
Track history (hours):
 
Tides and Currents Weather Stations Pressure Air Temp Water Temp Dewpoint Dewpoint Depression Visibility Wind Speed Wind Dir Waves Ship Positions

Sanko Independence

Last reported at 2017-Sep-20 19:00 UTC. Time now 2017-Sep-24 10:22 UTC.
Position N 35°47' E 033°20'.

Length 174 m; draft 10.3 m.

Type: Ship (hazmat cat B). MMSI: 636013946.

Date/timePositionNaut miles runAvg speedWind from/ knotsBaromVisibWave heightAir tempDewpointWater temp
2017-Sep-20 19:00N 35°47' E 033°20'46913.0
2017-Sep-19 06:56N 34°33' E 023°53'1913.2
2017-Sep-19 05:30N 34°37' E 023°31'713.4
2017-Sep-19 05:00N 34°38' E 023°23'3412.7
2017-Sep-19 02:17N 34°46' E 022°42'412.3
2017-Sep-19 01:59N 34°47' E 022°38'612.5
2017-Sep-19 01:30N 34°49' E 022°30'912.7
2017-Sep-19 00:46N 34°51' E 022°20'413.0
2017-Sep-19 00:26N 34°52' E 022°14'512.9
2017-Sep-19 00:00N 34°53' E 022°08'913.1
2017-Sep-18 23:19N 34°55' E 021°57'413.1
2017-Sep-18 22:58N 34°56' E 021°52'713.0
2017-Sep-18 22:27N 34°58' E 021°44'2813.0
2017-Sep-18 20:19N 35°04' E 021°11'512.9
2017-Sep-18 19:55N 35°06' E 021°05'512.9
2017-Sep-18 19:30N 35°07' E 020°58'714.4
2017-Sep-18 19:00N 35°09' E 020°50'612.7
2017-Sep-18 18:30N 35°10' E 020°42'612.7
2017-Sep-18 18:00N 35°12' E 020°35'612.7
2017-Sep-18 17:31N 35°13' E 020°27'2312.6
2017-Sep-18 15:40N 35°18' E 019°60'612.6
2017-Sep-18 15:11N 35°20' E 019°52'1012.7
2017-Sep-18 14:25N 35°22' E 019°41'512.7
2017-Sep-18 14:00N 35°24' E 019°34'2012.8
2017-Sep-18 12:28N 35°28' E 019°11'612.8
2017-Sep-18 12:01N 35°29' E 019°04'712.9
2017-Sep-18 11:29N 35°31' E 018°56'613.1
2017-Sep-18 10:59N 35°32' E 018°48'713.2
2017-Sep-18 10:26N 35°34' E 018°40'1213.2
2017-Sep-18 09:32N 35°37' E 018°25'012.9
2017-Sep-18 09:30N 35°37' E 018°25'9113.1
2017-Sep-18 02:33N 35°58' E 016°36'112.9
2017-Sep-18 02:30N 35°59' E 016°35'612.7
2017-Sep-18 02:00N 36°00' E 016°28'5412.4
2017-Sep-17 21:37N 36°13' E 015°22'1013.3
2017-Sep-17 20:51N 36°15' E 015°10'513.4
2017-Sep-17 20:30N 36°16' E 015°04'713.6
2017-Sep-17 20:00N 36°18' E 014°56'713.4
2017-Sep-17 19:30N 36°19' E 014°48'713.2
2017-Sep-17 19:00N 36°21' E 014°40'713.1
2017-Sep-17 18:30N 36°23' E 014°32'713.2
2017-Sep-17 18:00N 36°25' E 014°24'713.4
2017-Sep-17 17:30N 36°27' E 014°17'713.5
2017-Sep-17 17:01N 36°29' E 014°09'713.4
2017-Sep-17 16:30N 36°31' E 014°01'713.4
2017-Sep-17 16:00N 36°33' E 013°53'713.6
2017-Sep-17 15:31N 36°35' E 013°45'713.6
2017-Sep-17 15:00N 36°38' E 013°37'713.6
2017-Sep-17 14:31N 36°40' E 013°29'713.5
2017-Sep-17 13:59N 36°42' E 013°21'613.3
2017-Sep-17 13:31N 36°44' E 013°13'713.1
2017-Sep-17 13:00N 36°46' E 013°05'1113.1
2017-Sep-17 12:12N 36°50' E 012°53'1013.2
2017-Sep-17 11:26N 36°54' E 012°41'613.3
2017-Sep-17 11:00N 36°56' E 012°34'5712.9
2017-Sep-17 06:34N 37°16' E 011°27'112.8
2017-Sep-17 06:30N 37°16' E 011°26'613.0
2017-Sep-17 06:00N 37°18' E 011°19'52513.0
2017-Sep-15 13:39N 36°45' E 000°23'913.4
2017-Sep-15 12:58N 36°44' E 000°11'26413.6
2017-Sep-14 17:29N 36°00' W 005°12'715.5
2017-Sep-14 17:00N 35°59' W 005°21'714.8
2017-Sep-14 16:30N 35°57' W 005°30'1712.8
2017-Sep-14 15:12N 35°54' W 005°50'712.8
2017-Sep-14 14:40N 35°53' W 005°59'1613.2
2017-Sep-14 13:29N 35°50' W 006°18'2812.9
2017-Sep-14 11:19N 35°47' W 006°52'412.3
2017-Sep-14 11:00N 35°46' W 006°57'612.3
2017-Sep-14 10:30N 35°45' W 007°04'612.2
2017-Sep-14 10:00N 35°44' W 007°12'612.7
2017-Sep-14 09:30N 35°44' W 007°19'612.5
2017-Sep-14 09:00N 35°43' W 007°27'812.2
2017-Sep-14 08:21N 35°42' W 007°37'612.3
2017-Sep-14 07:54N 35°41' W 007°44'512.2
2017-Sep-14 07:29N 35°41' W 007°50'612.1
2017-Sep-14 07:00N 35°40' W 007°57'612.4
2017-Sep-14 06:30N 35°39' W 008°04'712.4
2017-Sep-14 05:58N 35°38' W 008°13'812.5
2017-Sep-14 05:19N 35°37' W 008°22'1412.6
2017-Sep-14 04:13N 35°36' W 008°39'312.4
2017-Sep-14 04:00N 35°35' W 008°43'612.3
2017-Sep-14 03:30N 35°35' W 008°50'612.6
2017-Sep-14 03:00N 35°34' W 008°58'612.4
2017-Sep-14 02:29N 35°33' W 009°06'812.1
2017-Sep-14 01:47N 35°32' W 009°16'3311.9
2017-Sep-13 22:59N 35°28' W 009°57'711.6
2017-Sep-13 22:23N 35°27' W 010°05'511.6
2017-Sep-13 21:58N 35°27' W 010°11'911.5
2017-Sep-13 21:10N 35°26' W 010°22'511.7
2017-Sep-13 20:46N 35°25' W 010°28'511.3
2017-Sep-13 20:19N 35°25' W 010°34'611.7
2017-Sep-13 19:48N 35°24' W 010°41'411.7
2017-Sep-13 19:27N 35°23' W 010°47'511.5
2017-Sep-13 19:00N 35°23' W 010°53'611.6
2017-Sep-13 18:29N 35°22' W 011°00'1011.6
2017-Sep-13 17:39N 35°21' W 011°12'210.8
2017-Sep-13 17:30N 35°20' W 011°14'611.5
2017-Sep-13 16:57N 35°20' W 011°22'511.4
2017-Sep-13 16:30N 35°19' W 011°28'611.4
2017-Sep-13 16:00N 35°19' W 011°35'611.3
2017-Sep-13 15:29N 35°18' W 011°42'811.4
2017-Sep-13 14:49N 35°17' W 011°51'611.4
2017-Sep-13 14:16N 35°16' W 011°59'611.5
2017-Sep-13 13:45N 35°15' W 012°06'9111.8
2017-Sep-13 06:02N 35°05' W 013°57'113.3
2017-Sep-13 05:59N 35°05' W 013°57'1913.2
2017-Sep-13 04:35N 35°02' W 014°20'213.1
2017-Sep-13 04:27N 35°02' W 014°22'913.1
2017-Sep-13 03:47N 35°01' W 014°32'413.2
2017-Sep-13 03:29N 35°00' W 014°37'42312.6
2017-Sep-11 17:57N 34°52' W 023°14'2612.1
2017-Sep-11 15:49N 34°54' W 023°45'412.8
2017-Sep-11 15:30N 34°54' W 023°50'712.5
2017-Sep-11 14:54N 34°55' W 023°59'1212.5
2017-Sep-11 13:56N 34°56' W 024°14'1812.6
2017-Sep-11 12:32N 34°57' W 024°35'412.3
2017-Sep-11 12:14N 34°58' W 024°40'3112.2
2017-Sep-11 09:39N 34°59' W 025°18'  

Dump ship's entire track history